Time;durP1;ratioP1;P1;durP2;ratioP2;P2;SDS_P1;SDS_P2;PMS_P1;PMS_P2;Temp;Humidity;BMP_temperature;BMP_pressure;BME280_temperature;BME280_humidity;BME280_pressure;Samples;Min_cycle;Max_cycle;Signal;HPM_P1;HPM_P2
2023/10/13 00:00:47;;;;;;;7.87;7.17;;;;;;;16.90;100.00;100006.22;5036954;28;20298;-84
2023/10/13 00:03:15;;;;;;;7.60;7.03;;;;;;;16.90;100.00;100008.88;5048268;28;20317;-84
2023/10/13 00:06:01;;;;;;;7.87;7.30;;;;;;;16.95;100.00;100012.97;5058506;28;20209;-83
2023/10/13 00:08:36;;;;;;;7.43;6.83;;;;;;;16.96;100.00;100016.44;5059010;28;20199;-84
2023/10/13 00:11:09;;;;;;;8.37;7.57;;;;;;;16.94;100.00;100010.41;5058538;28;20209;-84
2023/10/13 00:13:50;;;;;;;13.23;7.47;;;;;;;16.95;100.00;100018.25;5057945;28;20209;-84
2023/10/13 00:16:40;;;;;;;9.77;7.00;;;;;;;16.97;100.00;100013.75;5057985;28;20225;-83
2023/10/13 00:19:13;;;;;;;7.50;6.90;;;;;;;17.02;100.00;100008.22;5057926;28;20226;-84
2023/10/13 00:21:42;;;;;;;8.53;7.83;;;;;;;17.00;100.00;100004.81;5058385;28;20317;-82
2023/10/13 00:24:15;;;;;;;7.97;7.37;;;;;;;16.97;100.00;100003.19;5056294;28;20201;-84
2023/10/13 00:26:43;;;;;;;8.77;8.07;;;;;;;17.04;100.00;100004.56;5059105;28;20217;-84
2023/10/13 00:29:16;;;;;;;9.03;8.03;;;;;;;17.02;100.00;100001.16;5058367;28;20637;-84
2023/10/13 00:31:48;;;;;;;7.63;7.10;;;;;;;17.06;100.00;99994.78;5056939;28;20233;-84
2023/10/13 00:34:19;;;;;;;7.60;7.00;;;;;;;17.09;100.00;100004.34;5058589;28;20583;-85
2023/10/13 00:37:11;;;;;;;7.30;6.80;;;;;;;17.15;100.00;100005.81;5059808;28;20221;-84
2023/10/13 00:39:36;;;;;;;7.90;7.23;;;;;;;17.13;100.00;100015.56;5056811;28;20225;-84
2023/10/13 00:42:17;;;;;;;8.53;7.93;;;;;;;17.13;100.00;100010.31;5057536;28;20276;-84
2023/10/13 00:45:08;;;;;;;8.70;8.00;;;;;;;17.11;100.00;100007.75;5057432;28;20226;-85
2023/10/13 00:47:38;;;;;;;9.73;8.73;;;;;;;17.03;100.00;99988.84;5052787;28;20195;-85
2023/10/13 00:50:15;;;;;;;9.03;8.23;;;;;;;17.05;100.00;99982.53;5057431;28;20208;-85
2023/10/13 00:52:42;;;;;;;8.50;7.80;;;;;;;17.07;100.00;99978.03;5054503;28;20601;-84
2023/10/13 00:55:17;;;;;;;9.43;8.53;;;;;;;17.07;100.00;99970.13;5057642;28;20284;-85
2023/10/13 00:57:43;;;;;;;8.90;8.20;;;;;;;17.12;100.00;99972.50;5057424;28;20765;-85
2023/10/13 01:03:06;;;;;;;10.37;9.47;;;;;;;17.14;100.00;99982.97;5054836;22;20232;-81
2023/10/13 01:05:33;;;;;;;9.97;9.00;;;;;;;17.18;100.00;99981.88;5023078;28;20704;-86
2023/10/13 01:08:03;;;;;;;10.83;9.73;;;;;;;17.19;100.00;99989.72;5025460;28;20198;-84
2023/10/13 01:10:37;;;;;;;10.53;9.53;;;;;;;17.12;100.00;99982.22;5026861;28;20301;-84
2023/10/13 01:13:04;;;;;;;10.87;10.07;;;;;;;17.18;100.00;99982.72;5024399;28;20227;-85
2023/10/13 01:15:40;;;;;;;11.30;10.20;;;;;;;17.18;100.00;99980.09;5024015;28;20211;-83
2023/10/13 01:18:23;;;;;;;;;;;;;;;;;;;;;
2023/10/13 01:20:59;;;;;;;13.37;11.70;;;;;;;17.13;100.00;99982.13;5019673;28;20215;-83
2023/10/13 01:23:28;;;;;;;12.87;11.57;;;;;;;17.12;100.00;99980.41;5026672;28;20300;-85
2023/10/13 01:26:04;;;;;;;12.73;11.73;;;;;;;17.13;100.00;99960.19;5022846;28;20330;-84
2023/10/13 01:28:30;;;;;;;12.57;11.37;;;;;;;17.10;100.00;99957.72;5018939;28;20265;-84
2023/10/13 01:33:29;;;;;;;12.93;11.83;;;;;;;17.00;100.00;99931.81;5093845;22;20776;-84
2023/10/13 01:36:06;;;;;;;13.17;12.00;;;;;;;16.99;100.00;99924.03;5062226;28;20199;-85
2023/10/13 01:38:36;;;;;;;13.60;12.50;;;;;;;17.09;100.00;99938.41;5063751;28;20230;-84
2023/10/13 01:41:08;;;;;;;12.47;11.47;;;;;;;17.03;100.00;99929.03;5064097;28;20196;-84
2023/10/13 01:43:38;;;;;;;13.20;12.00;;;;;;;17.05;100.00;99927.16;5070779;28;20210;-84
2023/10/13 01:46:09;;;;;;;14.30;12.90;;;;;;;17.02;100.00;99926.47;5073595;28;20227;-84
2023/10/13 01:48:43;;;;;;;13.60;12.40;;;;;;;17.06;100.00;99918.31;5072899;28;20585;-83
2023/10/13 01:51:10;;;;;;;13.93;12.63;;;;;;;17.04;100.00;99922.81;5062886;28;20209;-84
2023/10/13 01:53:43;;;;;;;14.43;13.10;;;;;;;17.06;100.00;99922.72;5054303;28;20209;-85
2023/10/13 01:56:11;;;;;;;14.50;13.13;;;;;;;17.00;100.00;99926.53;5054254;28;20571;-85
2023/10/13 01:58:47;;;;;;;13.00;11.97;;;;;;;17.07;100.00;99921.81;5054065;28;20252;-84
2023/10/13 02:01:13;;;;;;;13.70;12.33;;;;;;;17.02;100.00;99921.19;5070903;22;20241;-84
2023/10/13 02:04:04;;;;;;;13.67;12.30;;;;;;;17.04;100.00;99924.59;5054154;28;20214;-84
2023/10/13 02:06:36;;;;;;;18.53;12.90;;;;;;;17.10;100.00;99926.06;5054138;28;20288;-85
2023/10/13 02:09:25;;;;;;;13.37;11.93;;;;;;;17.13;100.00;99928.53;5056179;28;20201;-85
2023/10/13 02:11:54;;;;;;;13.73;12.33;;;;;;;17.06;100.00;99925.38;5054634;28;20262;-83
2023/10/13 02:14:22;;;;;;;11.87;10.97;;;;;;;17.07;100.00;99927.94;5054310;28;20213;-84
2023/10/13 02:17:11;;;;;;;12.17;10.97;;;;;;;17.12;100.00;99932.94;5055142;28;20256;-84
2023/10/13 02:19:46;;;;;;;10.87;9.80;;;;;;;17.15;100.00;99931.94;5054725;28;20213;-82
2023/10/13 02:22:25;;;;;;;12.70;10.63;;;;;;;17.16;100.00;99931.00;5053518;28;20831;-86
2023/10/13 02:25:16;;;;;;;10.57;9.67;;;;;;;17.19;100.00;99934.31;5054273;28;20273;-84
2023/10/13 02:27:43;;;;;;;9.50;8.77;;;;;;;17.24;100.00;99923.50;5054476;28;20197;-84
2023/10/13 02:30:29;;;;;;;9.70;8.80;;;;;;;17.19;100.00;99936.97;5054943;28;20213;-84
2023/10/13 02:33:05;;;;;;;10.00;9.20;;;;;;;17.20;100.00;99935.16;5036285;28;20231;-83
2023/10/13 02:35:41;;;;;;;9.77;9.03;;;;;;;17.20;100.00;99921.97;5053751;28;20217;-82
2023/10/13 02:38:11;;;;;;;9.30;8.60;;;;;;;17.20;100.00;99917.56;5054183;28;20228;-84
2023/10/13 02:40:49;;;;;;;;;;;;;;;;;;;;;
2023/10/13 02:43:22;;;;;;;9.70;8.27;;;;;;;17.22;100.00;99915.72;5052539;28;20234;-83
2023/10/13 02:46:07;;;;;;;8.57;7.87;;;;;;;17.07;100.00;99912.09;5054024;28;20213;-84
2023/10/13 02:48:43;;;;;;;8.80;7.90;;;;;;;17.19;100.00;99915.88;5054017;28;20256;-83
2023/10/13 02:54:02;;;;;;;8.63;7.77;;;;;;;17.27;100.00;99921.56;5046077;28;20433;-86
2023/10/13 02:56:29;;;;;;;9.67;8.17;;;;;;;17.35;100.00;99925.59;5058460;28;20210;-85
2023/10/13 02:59:04;;;;;;;8.63;7.73;;;;;;;17.35;100.00;99933.50;5057950;28;20260;-83
2023/10/13 03:01:33;;;;;;;8.23;7.53;;;;;;;17.36;100.00;99928.13;5057812;28;20233;-84
2023/10/13 03:04:23;;;;;;;9.23;8.53;;;;;;;17.37;100.00;99926.34;5058405;28;20205;-84
2023/10/13 03:06:48;;;;;;;8.77;7.87;;;;;;;17.35;100.00;99923.78;5057812;28;20214;-84
2023/10/13 03:09:21;;;;;;;8.67;7.97;;;;;;;17.35;100.00;99909.75;5057909;28;20702;-84
2023/10/13 03:11:51;;;;;;;7.30;6.73;;;;;;;17.36;100.00;99906.16;5058073;28;20229;-84
2023/10/13 03:14:26;;;;;;;8.37;7.77;;;;;;;17.36;100.00;99901.75;5057839;28;20211;-85
2023/10/13 03:17:33;;;;;;;7.97;7.37;;;;;;;17.33;100.00;99901.06;5056822;28;20205;-84
2023/10/13 03:25:36;;;;;;;7.40;6.90;;;;;;;17.26;100.00;99895.25;4983441;28;20247;-84
2023/10/13 03:28:15;;;;;;;;;;;;;;;;;;;;;
2023/10/13 03:30:52;;;;;;;7.60;7.00;;;;;;;17.44;100.00;99896.03;4995380;28;20689;-84
2023/10/13 03:33:32;;;;;;;8.23;7.33;;;;;;;17.44;100.00;99896.03;5063738;22;20239;-85
2023/10/13 03:36:56;;;;;;;8.57;7.87;;;;;;;17.44;100.00;99886.34;5057070;28;20201;-85
2023/10/13 03:39:22;;;;;;;7.50;6.77;;;;;;;17.46;100.00;99900.31;5056992;28;20670;-85
2023/10/13 03:42:06;;;;;;;;;;;;;;;;;;;;;
2023/10/13 03:45:10;;;;;;;8.03;7.37;;;;;;;17.47;100.00;99895.88;5038974;28;20304;-85
2023/10/13 03:47:45;;;;;;;7.67;7.07;;;;;;;17.35;100.00;99896.56;5049755;28;20214;-83
2023/10/13 03:50:29;;;;;;;7.23;6.73;;;;;;;17.41;100.00;99889.13;5056380;28;20224;-84
2023/10/13 03:52:59;;;;;;;9.90;8.07;;;;;;;17.44;100.00;99904.81;5056983;28;20221;-85
2023/10/13 03:55:29;;;;;;;7.97;7.17;;;;;;;17.41;100.00;99893.56;5065008;28;20777;-83
2023/10/13 03:58:03;;;;;;;7.47;6.83;;;;;;;17.39;100.00;99890.16;5071254;28;20244;-85
2023/10/13 04:00:31;;;;;;;7.10;6.50;;;;;;;17.39;100.00;99895.44;5056973;28;20299;-85
2023/10/13 04:03:18;;;;;;;8.30;7.60;;;;;;;17.38;100.00;99891.97;5057476;28;20350;-85
2023/10/13 04:06:00;;;;;;;6.80;6.30;;;;;;;17.35;100.00;99891.28;5056225;28;20212;-86
2023/10/13 04:09:51;;;;;;;8.50;7.70;;;;;;;17.36;100.00;99887.69;5057159;28;20233;-85
2023/10/13 04:13:10;;;;;;;7.40;6.60;;;;;;;17.36;100.00;99891.19;5056781;28;20225;-85
2023/10/13 04:17:25;;;;;;;6.90;6.40;;;;;;;17.35;100.00;99892.13;5056266;28;20685;-84
2023/10/13 04:20:26;;;;;;;7.43;6.83;;;;;;;17.31;100.00;99892.41;5057618;28;20256;-86
2023/10/13 04:31:24;;;;;;;7.30;6.37;;;;;;;17.30;100.00;99872.22;5039421;28;20576;-84
2023/10/13 04:34:15;;;;;;;7.13;6.63;;;;;;;17.30;100.00;99859.88;5057103;28;20324;-85
2023/10/13 04:36:55;;;;;;;6.93;6.37;;;;;;;17.29;100.00;99860.81;5056165;28;20209;-84
2023/10/13 04:39:38;;;;;;;8.20;7.00;;;;;;;17.30;100.00;99851.94;5055885;28;20235;-85
2023/10/13 04:42:39;;;;;;;6.67;6.17;;;;;;;17.30;100.00;99845.81;5056894;28;20948;-83
2023/10/13 04:45:38;;;;;;;6.57;6.07;;;;;;;17.28;100.00;99840.63;5055342;28;20208;-85
2023/10/13 04:48:27;;;;;;;6.77;6.23;;;;;;;17.27;100.00;99837.16;5057398;28;20207;-83
2023/10/13 04:57:20;;;;;;;5.40;4.90;;;;;;;17.24;100.00;99831.19;5055640;28;20212;-84
2023/10/13 05:03:29;;;;;;;7.20;6.70;;;;;;;17.24;100.00;99833.84;5057002;28;20252;-85
2023/10/13 05:50:29;;;;;;;8.37;7.67;;;;;;;17.16;100.00;99743.75;5057133;28;20290;-84
2023/10/13 06:28:42;;;;;;;8.33;7.63;;;;;;;17.53;100.00;99702.88;5055672;28;20674;-87
2023/10/13 06:31:14;;;;;;;9.00;8.20;;;;;;;17.54;100.00;99696.66;5055999;28;20201;-86
2023/10/13 06:33:45;;;;;;;9.83;8.90;;;;;;;17.51;100.00;99682.81;5056522;28;20240;-85
2023/10/13 06:36:11;;;;;;;9.57;8.77;;;;;;;17.53;100.00;99688.84;5057761;28;20212;-86
2023/10/13 06:38:38;;;;;;;9.47;8.50;;;;;;;17.55;100.00;99689.59;5057680;28;20229;-85
2023/10/13 06:41:05;;;;;;;9.73;8.87;;;;;;;17.53;100.00;99675.66;5057326;28;20205;-86
2023/10/13 06:43:39;;;;;;;9.20;8.30;;;;;;;17.54;100.00;99678.19;5057834;28;20251;-85
2023/10/13 06:46:07;;;;;;;9.03;8.23;;;;;;;17.55;100.00;99674.59;5057527;28;20210;-85
2023/10/13 06:48:34;;;;;;;8.00;7.40;;;;;;;17.60;100.00;99669.91;5056747;28;20208;-85
2023/10/13 06:51:17;;;;;;;8.63;8.03;;;;;;;17.60;100.00;99674.31;5056685;28;20197;-86
2023/10/13 06:53:46;;;;;;;7.50;6.80;;;;;;;17.64;100.00;99673.19;5057783;28;20220;-86
2023/10/13 06:56:16;;;;;;;8.67;7.93;;;;;;;17.69;100.00;99675.56;5056737;28;20726;-86
2023/10/13 06:58:46;;;;;;;8.50;7.73;;;;;;;17.66;100.00;99666.91;5056677;28;20226;-86
2023/10/13 07:01:15;;;;;;;8.83;8.23;;;;;;;17.75;100.00;99665.47;5057191;28;20210;-86
2023/10/13 07:03:41;;;;;;;8.20;7.60;;;;;;;17.76;100.00;99654.00;5057131;28;20261;-86
2023/10/13 07:06:11;;;;;;;9.53;8.73;;;;;;;17.73;100.00;99651.53;5057732;28;20220;-86
2023/10/13 07:08:38;;;;;;;9.97;9.07;;;;;;;17.72;100.00;99639.28;5057685;28;20267;-85
2023/10/13 07:11:08;;;;;;;9.73;9.00;;;;;;;17.75;100.00;99638.22;5057292;28;20702;-86
2023/10/13 07:13:37;;;;;;;9.37;8.67;;;;;;;17.74;100.00;99629.47;5057915;28;20300;-86
2023/10/13 07:16:12;;;;;;;10.27;8.43;;;;;;;17.72;100.00;99628.72;5058858;28;20217;-85
2023/10/13 07:18:49;;;;;;;11.00;9.93;;;;;;;17.65;100.00;99622.94;5058507;28;20232;-85
2023/10/13 07:21:16;;;;;;;13.40;9.33;;;;;;;17.64;100.00;99602.78;5058314;28;20233;-85
2023/10/13 07:23:49;;;;;;;10.17;9.37;;;;;;;17.71;100.00;99597.13;5057672;28;20213;-86
2023/10/13 07:26:16;;;;;;;9.80;8.83;;;;;;;17.69;100.00;99602.50;5058151;28;20672;-85
2023/10/13 07:28:44;;;;;;;10.13;9.23;;;;;;;17.78;100.00;99607.22;5058360;28;20205;-86
2023/10/13 07:31:14;;;;;;;9.23;8.43;;;;;;;17.67;100.00;99594.66;5057822;28;20209;-85
2023/10/13 07:33:41;;;;;;;9.43;8.63;;;;;;;17.78;100.00;99596.66;5057482;28;20580;-86
2023/10/13 07:36:17;;;;;;;9.07;8.20;;;;;;;17.76;100.00;99602.97;5058537;28;20628;-86
2023/10/13 07:39:09;;;;;;;9.10;8.20;;;;;;;17.82;100.00;99576.22;5057311;28;20263;-88
2023/10/13 07:45:24;;;;;;;8.13;7.40;;;;;;;17.87;100.00;99589.97;4991701;28;20193;-87
2023/10/13 07:57:17;;;;;;;7.40;6.70;;;;;;;18.04;100.00;99573.91;6069998;22;20423;-86
2023/10/13 08:04:04;;;;;;;7.50;6.30;;;;;;;18.12;100.00;99562.88;5474339;23;20755;-88
2023/10/13 08:06:31;;;;;;;7.23;6.63;;;;;;;18.13;100.00;99567.19;5009539;28;20214;-86
2023/10/13 08:09:07;;;;;;;6.67;6.10;;;;;;;18.15;100.00;99556.53;5038181;28;20217;-87
2023/10/13 08:11:36;;;;;;;9.47;5.67;;;;;;;18.11;100.00;99555.03;5038114;28;20233;-87
2023/10/13 08:14:22;;;;;;;5.87;5.37;;;;;;;18.12;100.00;99551.47;5037880;28;20207;-86
2023/10/13 08:16:59;;;;;;;5.73;5.07;;;;;;;18.12;100.00;99539.09;5037056;28;20233;-85
2023/10/13 08:19:28;;;;;;;6.10;5.47;;;;;;;18.22;100.00;99542.81;5037827;28;20263;-87
2023/10/13 08:21:58;;;;;;;6.30;5.80;;;;;;;18.27;100.00;99545.16;5037714;28;20618;-84
2023/10/13 08:24:29;;;;;;;5.43;4.90;;;;;;;18.32;100.00;99545.72;5037783;28;20206;-85
2023/10/13 08:26:57;;;;;;;4.60;4.20;;;;;;;18.39;100.00;99552.31;5038629;28;20673;-86
2023/10/13 08:32:19;;;;;;;4.67;4.27;;;;;;;18.33;100.00;99568.53;5038328;28;20684;-84
2023/10/13 08:37:32;;;;;;;5.40;4.87;;;;;;;18.45;100.00;99554.53;5014686;28;20222;-85
2023/10/13 08:42:52;;;;;;;4.17;3.77;;;;;;;18.57;100.00;99563.47;5035943;28;20226;-86
2023/10/13 08:45:53;;;;;;;3.73;3.43;;;;;;;18.61;100.00;99561.44;5037989;28;20220;-85
2023/10/13 08:48:12;;;;;;;3.90;3.60;;;;;;;18.54;100.00;99579.50;5038117;28;20569;-85
2023/10/13 08:50:48;;;;;;;4.03;3.73;;;;;;;18.58;100.00;99577.50;5037468;28;20218;-85
2023/10/13 08:53:26;;;;;;;4.10;3.80;;;;;;;18.73;100.00;99573.00;5036865;28;20244;-87
2023/10/13 08:56:02;;;;;;;5.20;3.73;;;;;;;18.82;100.00;99575.06;5037556;28;20205;-85
2023/10/13 08:59:04;;;;;;;3.93;3.53;;;;;;;18.88;100.00;99563.22;5037634;28;20285;-83
2023/10/13 09:01:35;;;;;;;3.70;3.47;;;;;;;18.93;100.00;99566.41;5038578;28;20285;-87
2023/10/13 09:10:35;;;;;;;4.00;3.70;;;;;;;19.10;100.00;99600.50;5032817;28;20207;-86
2023/10/13 09:13:26;;;;;;;4.17;3.73;;;;;;;19.23;100.00;99606.66;5064619;22;20237;-88
2023/10/13 09:16:01;;;;;;;3.90;3.50;;;;;;;19.21;100.00;99627.06;5039386;28;20226;-86
2023/10/13 09:18:46;;;;;;;3.90;3.47;;;;;;;19.38;100.00;99630.34;5051483;28;20310;-86
2023/10/13 09:21:47;;;;;;;3.57;3.27;;;;;;;19.44;100.00;99630.81;5054349;28;20204;-84
2023/10/13 09:24:21;;;;;;;4.63;4.03;;;;;;;19.43;100.00;99623.81;5052284;28;20665;-84
2023/10/13 09:26:50;;;;;;;3.13;2.60;;;;;;;19.53;100.00;99616.06;5053150;28;20218;-84
2023/10/13 09:29:18;;;;;;;4.20;3.50;;;;;;;19.61;100.00;99612.91;5036603;28;20666;-84
2023/10/13 09:31:47;;;;;;;4.43;3.20;;;;;;;19.60;100.00;99622.66;5037461;28;20257;-87
2023/10/13 09:34:23;;;;;;;5.27;3.20;;;;;;;19.63;100.00;99625.06;5037245;28;20212;-86
2023/10/13 09:36:55;;;;;;;3.67;3.07;;;;;;;19.79;100.00;99627.53;5037833;28;20203;-85
2023/10/13 09:39:29;;;;;;;4.17;3.67;;;;;;;19.85;100.00;99636.84;5037671;28;20614;-86
2023/10/13 09:41:59;;;;;;;4.57;3.90;;;;;;;19.96;100.00;99641.38;5038831;28;20234;-86
2023/10/13 09:44:26;;;;;;;5.93;3.47;;;;;;;19.95;100.00;99631.75;5038659;28;20213;-84
2023/10/13 09:46:52;;;;;;;4.37;3.20;;;;;;;20.03;100.00;99632.88;5038274;28;20211;-85
2023/10/13 09:49:44;;;;;;;4.87;3.20;;;;;;;20.05;100.00;99643.38;5038768;28;20702;-84
2023/10/13 09:52:18;;;;;;;5.30;2.97;;;;;;;20.14;100.00;99639.25;5038389;28;20227;-86
2023/10/13 09:55:08;;;;;;;4.63;4.13;;;;;;;20.18;100.00;99635.41;5037953;28;20208;-85
2023/10/13 09:57:44;;;;;;;4.40;3.60;;;;;;;20.24;100.00;99627.00;5039816;28;20208;-85
2023/10/13 10:00:36;;;;;;;4.47;3.10;;;;;;;20.28;100.00;99641.72;5038700;28;20253;-87
2023/10/13 10:03:14;;;;;;;6.93;4.10;;;;;;;20.42;100.00;99630.97;5038407;28;20555;-86
2023/10/13 10:05:49;;;;;;;4.87;3.90;;;;;;;20.54;100.00;99620.44;5036909;28;20207;-87
2023/10/13 10:08:31;;;;;;;4.90;3.97;;;;;;;20.58;100.00;99629.84;5036889;28;20234;-85
2023/10/13 10:11:08;;;;;;;7.27;4.43;;;;;;;20.57;100.00;99639.63;5037373;28;20582;-85
2023/10/13 10:13:39;;;;;;;7.57;3.83;;;;;;;20.67;99.80;99645.09;5037752;28;20278;-85
2023/10/13 10:16:14;;;;;;;8.73;4.23;;;;;;;20.72;98.65;99658.03;5036646;28;20235;-85
2023/10/13 10:18:41;;;;;;;5.67;3.93;;;;;;;20.71;99.25;99641.25;5036443;28;20367;-85
2023/10/13 10:21:10;;;;;;;4.07;3.40;;;;;;;20.73;98.68;99651.75;5037502;28;20209;-87
2023/10/13 10:23:39;;;;;;;5.17;4.60;;;;;;;20.87;98.38;99640.13;5036644;28;20212;-83
2023/10/13 10:26:13;;;;;;;8.27;5.30;;;;;;;20.91;95.75;99666.34;5035565;28;20633;-86
2023/10/13 10:28:43;;;;;;;10.97;4.60;;;;;;;20.92;96.01;99657.41;5035763;28;20208;-86
2023/10/13 10:31:12;;;;;;;17.63;5.23;;;;;;;20.94;93.18;99684.66;5035045;28;20214;-86
2023/10/13 10:33:39;;;;;;;5.73;4.53;;;;;;;21.00;91.71;99737.25;5034801;28;20212;-86
2023/10/13 10:36:06;;;;;;;7.47;4.23;;;;;;;21.07;91.04;99731.50;5034408;28;20209;-86
2023/10/13 10:38:38;;;;;;;7.03;4.20;;;;;;;21.15;90.97;99731.78;5034537;28;20204;-84
2023/10/13 10:41:05;;;;;;;9.03;4.30;;;;;;;21.17;87.52;99781.16;5034688;28;20212;-86
2023/10/13 10:43:42;;;;;;;6.17;4.30;;;;;;;21.21;88.67;99777.31;5036358;28;20220;-87
2023/10/13 10:46:10;;;;;;;8.63;4.93;;;;;;;21.27;88.24;99781.31;5036334;28;20212;-86
2023/10/13 11:03:25;;;;;;;5.17;4.30;;;;;;;21.23;84.38;99809.06;5060569;23;20226;-83
2023/10/13 11:05:51;;;;;;;8.17;4.60;;;;;;;21.29;86.89;99774.09;5035294;28;20206;-84
2023/10/13 11:08:31;;;;;;;7.83;5.10;;;;;;;21.43;86.64;99762.47;5036734;28;20561;-85
2023/10/13 11:11:07;;;;;;;7.37;4.47;;;;;;;21.33;84.84;99772.91;5035761;28;20616;-87
2023/10/13 11:13:50;;;;;;;5.23;4.63;;;;;;;21.35;85.10;99770.97;5035704;28;20239;-88
2023/10/13 11:16:23;;;;;;;7.27;4.93;;;;;;;21.39;84.19;99776.91;5039661;28;20210;-86
2023/10/13 11:19:00;;;;;;;8.90;4.80;;;;;;;21.47;84.97;99755.13;5039494;28;20225;-86
2023/10/13 11:21:30;;;;;;;8.63;5.77;;;;;;;21.44;84.68;99745.56;5039585;28;20339;-85
2023/10/13 11:23:57;;;;;;;5.97;5.07;;;;;;;21.52;86.46;99732.53;5039280;28;20213;-85
2023/10/13 11:26:47;;;;;;;11.30;4.57;;;;;;;21.55;83.38;99771.31;5039325;28;20822;-84
2023/10/13 11:29:51;;;;;;;8.13;5.07;;;;;;;21.46;82.58;99790.59;5039528;28;20213;-86
2023/10/13 11:32:43;;;;;;;6.90;4.67;;;;;;;21.60;82.11;99806.34;5037941;28;20291;-88
2023/10/13 11:35:20;;;;;;;7.03;4.67;;;;;;;21.76;81.53;99811.34;5039186;28;20205;-84
2023/10/13 11:37:55;;;;;;;7.00;4.93;;;;;;;;;;5039398;28;20208;-85
2023/10/13 11:40:43;;;;;;;5.07;4.57;;;;;;;21.88;80.48;99839.63;5039545;28;20233;-87
2023/10/13 11:43:14;;;;;;;7.57;4.63;;;;;;;22.05;81.95;99787.03;5039178;28;20291;-85
2023/10/13 11:45:53;;;;;;;6.53;4.97;;;;;;;21.96;79.00;99820.44;5039855;28;20216;-87
2023/10/13 11:48:34;;;;;;;9.30;4.47;;;;;;;22.05;78.01;99841.00;5020203;28;20209;-89
2023/10/13 11:54:49;;;;;;;10.70;5.70;;;;;;;22.51;75.76;99890.66;4904520;29;20229;-88
2023/10/13 11:57:53;;;;;;;8.90;4.37;;;;;;;22.92;74.25;99899.88;4905170;28;20212;-86
2023/10/13 12:00:50;;;;;;;12.43;4.90;;;;;;;23.10;71.16;99981.97;4893437;28;20256;-86
2023/10/13 12:06:17;;;;;;;8.67;5.53;;;;;;;23.94;69.47;100022.34;5038581;28;20268;-85
2023/10/13 12:08:49;;;;;;;9.73;5.17;;;;;;;24.50;69.25;100051.53;5022987;28;20226;-85
2023/10/13 12:13:56;;;;;;;8.67;5.40;;;;;;;24.88;64.48;100174.75;5017489;28;20704;-84
2023/10/13 12:16:34;;;;;;;10.00;5.30;;;;;;;24.97;63.68;100171.28;5017528;28;20297;-85
2023/10/13 12:19:01;;;;;;;8.33;5.20;;;;;;;25.25;63.46;100183.22;5018434;28;20205;-85
2023/10/13 12:21:29;;;;;;;11.20;4.83;;;;;;;24.81;62.63;100225.13;5032014;28;20661;-82
2023/10/13 12:23:55;;;;;;;10.33;5.23;;;;;;;24.58;64.27;100195.00;4340000;28;10000629;-85
2023/10/13 12:26:32;;;;;;;9.03;5.20;;;;;;;24.38;64.79;100160.06;5033956;28;20208;-86
2023/10/13 12:29:06;;;;;;;9.23;4.63;;;;;;;23.81;67.94;100102.47;5033729;28;20212;-85
2023/10/13 12:31:38;;;;;;;8.57;4.70;;;;;;;23.72;68.62;100044.53;5034547;28;20229;-83
2023/10/13 12:34:14;;;;;;;8.23;5.10;;;;;;;23.39;67.56;100039.09;5024229;28;20230;-84
2023/10/13 12:36:41;;;;;;;8.70;4.97;;;;;;;23.47;70.33;99973.69;5022099;28;20213;-85
2023/10/13 12:50:14;;;;;;;10.83;4.83;;;;;;;23.13;70.03;99926.66;5034324;28;20223;-85
2023/10/13 12:52:45;;;;;;;8.67;5.60;;;;;;;23.28;69.28;99915.75;5035267;28;20308;-84
2023/10/13 12:55:13;;;;;;;8.90;5.70;;;;;;;23.14;67.38;99948.81;5035188;28;20213;-83
2023/10/13 12:57:43;;;;;;;9.13;4.83;;;;;;;23.18;68.23;99976.88;5034966;28;20275;-83
2023/10/13 13:00:21;;;;;;;8.80;4.67;;;;;;;23.19;67.54;99987.41;5034778;28;20275;-84
2023/10/13 13:02:51;;;;;;;7.67;5.03;;;;;;;23.13;68.17;99963.06;5035576;28;20236;-84
2023/10/13 13:05:22;;;;;;;9.30;5.57;;;;;;;23.14;69.59;99939.00;5015121;28;20297;-84
2023/10/13 13:07:52;;;;;;;9.33;4.70;;;;;;;23.05;69.82;99896.28;5015418;28;20210;-86
2023/10/13 13:10:19;;;;;;;11.80;5.30;;;;;;;22.98;69.86;99923.34;5027228;28;20210;-84
2023/10/13 13:12:45;;;;;;;8.97;5.53;;;;;;;23.02;69.91;99894.72;5035479;28;20228;-85
2023/10/13 13:15:12;;;;;;;10.20;5.00;;;;;;;23.00;69.79;99900.13;5035820;28;20958;-85
2023/10/13 13:17:39;;;;;;;8.47;5.60;;;;;;;23.07;69.79;99876.56;5034996;28;20213;-84
2023/10/13 13:20:25;;;;;;;9.90;5.17;;;;;;;23.11;70.17;99864.69;5034201;28;20316;-84
2023/10/13 13:22:53;;;;;;;12.07;6.17;;;;;;;23.00;69.72;99862.84;5033970;28;20258;-84
2023/10/13 13:25:25;;;;;;;8.97;5.80;;;;;;;23.05;70.18;99851.84;5034233;28;20223;-85
2023/10/13 13:27:51;;;;;;;18.87;5.87;;;;;;;22.93;70.06;99858.13;5033963;28;20272;-84
2023/10/13 13:30:19;;;;;;;8.27;6.10;;;;;;;22.90;70.72;99837.94;5034953;28;20198;-84
2023/10/13 13:32:47;;;;;;;10.23;6.20;;;;;;;22.94;71.07;99836.72;5033695;28;20233;-84
2023/10/13 13:35:18;;;;;;;6.00;5.40;;;;;;;23.04;70.39;99828.88;5032246;28;20214;-83
2023/10/13 13:37:44;;;;;;;13.20;6.43;;;;;;;22.94;69.77;99835.91;5013447;28;20685;-84
2023/10/13 13:40:15;;;;;;;7.67;5.50;;;;;;;22.97;69.29;99847.16;5013394;28;20596;-84
2023/10/13 13:42:43;;;;;;;9.10;5.80;;;;;;;23.11;70.59;99831.88;5014342;28;20231;-82
2023/10/13 13:45:21;;;;;;;11.23;5.30;;;;;;;23.11;70.55;99805.25;5014694;28;20218;-83
2023/10/13 13:47:53;;;;;;;13.33;5.73;;;;;;;23.19;69.85;99821.44;5013910;28;20633;-85
2023/10/13 13:50:24;;;;;;;7.97;5.97;;;;;;;23.25;68.08;99836.09;5018550;28;20210;-84
2023/10/13 13:52:52;;;;;;;9.00;5.40;;;;;;;23.30;68.43;99853.38;5034573;28;20611;-83
2023/10/13 13:55:19;;;;;;;9.13;5.50;;;;;;;23.64;68.69;99850.59;5037066;28;20254;-83
2023/10/13 13:57:46;;;;;;;12.77;5.90;;;;;;;23.99;66.54;99862.84;5033787;28;20209;-83
2023/10/13 14:00:17;;;;;;;11.00;5.83;;;;;;;24.16;64.75;99906.72;5034300;28;20260;-82
2023/10/13 14:02:47;;;;;;;8.30;5.33;;;;;;;24.19;64.88;99938.50;5035437;28;20252;-83
2023/10/13 14:05:15;;;;;;;16.77;6.17;;;;;;;23.96;64.90;99965.28;5031275;28;20245;-82
2023/10/13 14:07:48;;;;;;;12.07;5.80;;;;;;;24.05;66.03;99934.31;5030347;28;20199;-82
2023/10/13 14:10:31;;;;;;;10.53;5.47;;;;;;;23.99;66.41;99894.84;5031986;28;20212;-81
2023/10/13 14:13:06;;;;;;;7.77;5.80;;;;;;;23.70;66.24;99898.06;5032957;28;20234;-82
2023/10/13 14:15:39;;;;;;;11.97;5.80;;;;;;;23.65;67.75;99876.28;5028959;28;20213;-83
2023/10/13 14:18:06;;;;;;;9.17;6.33;;;;;;;23.48;65.96;99888.31;5014476;28;20894;-81
2023/10/13 14:20:39;;;;;;;12.53;5.43;;;;;;;23.51;66.59;99874.78;5015545;28;20318;-81
2023/10/13 14:23:11;;;;;;;8.00;5.60;;;;;;;23.47;67.06;99885.78;5027074;28;20229;-81
2023/10/13 14:25:38;;;;;;;9.33;5.70;;;;;;;23.39;66.16;99887.28;5018903;28;20600;-81
2023/10/13 14:28:06;;;;;;;12.20;5.73;;;;;;;23.36;66.25;99866.19;5012127;28;20681;-82
2023/10/13 14:30:32;;;;;;;8.87;5.03;;;;;;;23.51;66.57;99866.78;5012124;28;20203;-82
2023/10/13 14:32:59;;;;;;;6.80;5.80;;;;;;;23.42;66.12;99886.16;5020226;28;20233;-83
2023/10/13 14:35:26;;;;;;;13.53;5.77;;;;;;;23.46;65.26;99878.78;5012142;28;20217;-83
2023/10/13 14:37:53;;;;;;;7.73;5.87;;;;;;;23.49;64.40;99913.13;5012163;28;20210;-83
2023/10/13 14:40:22;;;;;;;9.30;6.00;;;;;;;23.47;64.03;99937.28;5012019;28;20238;-83
2023/10/13 14:42:48;;;;;;;9.87;5.73;;;;;;;23.62;64.27;99929.81;5011975;28;20284;-83
2023/10/13 14:45:16;;;;;;;7.40;5.37;;;;;;;23.75;64.15;99948.34;5012611;28;20209;-83
2023/10/13 14:47:43;;;;;;;11.17;6.23;;;;;;;23.73;63.06;99961.78;5013517;28;20680;-83
2023/10/13 14:50:19;;;;;;;12.13;5.70;;;;;;;23.77;63.39;99944.59;5017414;28;20202;-83
2023/10/13 14:52:45;;;;;;;8.07;5.70;;;;;;;23.70;63.10;99956.69;5035387;28;20225;-84
2023/10/13 14:55:18;;;;;;;10.33;5.23;;;;;;;23.66;64.04;99954.41;5036090;28;20215;-83
2023/10/13 14:57:47;;;;;;;6.13;5.13;;;;;;;23.57;62.90;99962.19;5035511;28;20221;-83
2023/10/13 15:00:14;;;;;;;10.37;5.40;;;;;;;23.52;62.66;99961.69;5035862;28;20228;-82
2023/10/13 15:02:42;;;;;;;15.20;5.67;;;;;;;23.58;64.31;99936.38;5030270;28;20605;-81
2023/10/13 15:05:16;;;;;;;9.80;5.93;;;;;;;23.49;64.07;99929.13;5015021;28;20229;-82